sensor_id;sensor_type;location;lat;lon;timestamp;temperature;humidity
59651;DHT22;45954;49.768;8.636;2022-12-29T00:01:40;12.40;99.90
59651;DHT22;45954;49.768;8.636;2022-12-29T00:04:07;12.30;99.90
59651;DHT22;45954;49.768;8.636;2022-12-29T00:06:37;12.20;99.90
59651;DHT22;45954;49.768;8.636;2022-12-29T00:09:02;12.40;99.90
59651;DHT22;45954;49.768;8.636;2022-12-29T00:11:28;12.30;99.90
59651;DHT22;45954;49.768;8.636;2022-12-29T00:13:55;12.30;99.90
59651;DHT22;45954;49.768;8.636;2022-12-29T00:16:45;12.30;99.90
59651;DHT22;45954;49.768;8.636;2022-12-29T00:19:12;12.20;99.90
59651;DHT22;45954;49.768;8.636;2022-12-29T00:21:58;12.20;99.90
59651;DHT22;45954;49.768;8.636;2022-12-29T00:24:44;12.10;99.90
59651;DHT22;45954;49.768;8.636;2022-12-29T00:27:19;12.10;99.90
59651;DHT22;45954;49.768;8.636;2022-12-29T00:30:09;12.10;99.90
59651;DHT22;45954;49.768;8.636;2022-12-29T00:32:54;12.00;99.90
59651;DHT22;45954;49.768;8.636;2022-12-29T00:35:45;12.10;99.90
59651;DHT22;45954;49.768;8.636;2022-12-29T00:38:18;11.90;99.90
59651;DHT22;45954;49.768;8.636;2022-12-29T00:41:03;12.00;99.90
59651;DHT22;45954;49.768;8.636;2022-12-29T00:43:47;12.00;99.90
59651;DHT22;45954;49.768;8.636;2022-12-29T00:46:32;12.00;99.90
59651;DHT22;45954;49.768;8.636;2022-12-29T00:48:59;11.80;99.90
59651;DHT22;45954;49.768;8.636;2022-12-29T00:51:44;11.80;99.90
59651;DHT22;45954;49.768;8.636;2022-12-29T00:54:11;11.90;99.90
59651;DHT22;45954;49.768;8.636;2022-12-29T00:56:38;11.80;99.90
59651;DHT22;45954;49.768;8.636;2022-12-29T00:59:09;11.80;99.90
59651;DHT22;45954;49.768;8.636;2022-12-29T01:01:36;11.80;99.90
59651;DHT22;45954;49.768;8.636;2022-12-29T01:04:04;11.90;99.90
59651;DHT22;45954;49.768;8.636;2022-12-29T01:06:30;11.90;99.90
59651;DHT22;45954;49.768;8.636;2022-12-29T01:08:57;11.80;99.90
59651;DHT22;45954;49.768;8.636;2022-12-29T01:11:41;11.90;99.90
59651;DHT22;45954;49.768;8.636;2022-12-29T01:14:07;11.80;99.90
59651;DHT22;45954;49.768;8.636;2022-12-29T01:16:33;11.90;99.90
59651;DHT22;45954;49.768;8.636;2022-12-29T01:18:59;11.90;99.90
59651;DHT22;45954;49.768;8.636;2022-12-29T01:21:25;11.90;99.90
59651;DHT22;45954;49.768;8.636;2022-12-29T01:23:51;11.90;99.90
59651;DHT22;45954;49.768;8.636;2022-12-29T01:26:18;11.80;99.90
59651;DHT22;45954;49.768;8.636;2022-12-29T01:28:44;11.90;99.90
59651;DHT22;45954;49.768;8.636;2022-12-29T01:31:12;12.00;99.90
59651;DHT22;45954;49.768;8.636;2022-12-29T01:33:40;12.10;99.90
59651;DHT22;45954;49.768;8.636;2022-12-29T01:36:10;12.10;99.90
59651;DHT22;45954;49.768;8.636;2022-12-29T01:38:38;12.20;99.90
59651;DHT22;45954;49.768;8.636;2022-12-29T01:41:06;12.20;99.90
59651;DHT22;45954;49.768;8.636;2022-12-29T01:43:55;12.20;99.90
59651;DHT22;45954;49.768;8.636;2022-12-29T01:46:25;12.20;99.90
59651;DHT22;45954;49.768;8.636;2022-12-29T01:48:58;12.30;99.90
59651;DHT22;45954;49.768;8.636;2022-12-29T01:51:38;12.30;99.90
59651;DHT22;45954;49.768;8.636;2022-12-29T01:54:13;12.30;99.90
59651;DHT22;45954;49.768;8.636;2022-12-29T01:56:44;12.20;99.90
59651;DHT22;45954;49.768;8.636;2022-12-29T01:59:17;12.20;99.90
59651;DHT22;45954;49.768;8.636;2022-12-29T02:01:45;12.20;99.90
59651;DHT22;45954;49.768;8.636;2022-12-29T02:04:12;12.20;99.90
59651;DHT22;45954;49.768;8.636;2022-12-29T02:06:46;12.10;99.90
59651;DHT22;45954;49.768;8.636;2022-12-29T02:09:15;12.00;99.90
59651;DHT22;45954;49.768;8.636;2022-12-29T02:11:41;12.10;99.90
59651;DHT22;45954;49.768;8.636;2022-12-29T02:14:12;12.00;99.90
59651;DHT22;45954;49.768;8.636;2022-12-29T02:20:24;12.10;99.90
59651;DHT22;45954;49.768;8.636;2022-12-29T02:23:29;12.00;99.90
59651;DHT22;45954;49.768;8.636;2022-12-29T02:44:30;12.00;99.90
59651;DHT22;45954;49.768;8.636;2022-12-29T02:47:21;12.00;99.90
59651;DHT22;45954;49.768;8.636;2022-12-29T02:53:02;11.90;99.90
59651;DHT22;45954;49.768;8.636;2022-12-29T02:55:30;11.90;99.90
59651;DHT22;45954;49.768;8.636;2022-12-29T03:00:48;12.00;99.90
59651;DHT22;45954;49.768;8.636;2022-12-29T03:03:35;11.90;99.90
59651;DHT22;45954;49.768;8.636;2022-12-29T03:11:59;12.00;99.90
59651;DHT22;45954;49.768;8.636;2022-12-29T03:14:44;12.00;99.90
59651;DHT22;45954;49.768;8.636;2022-12-29T03:18:01;12.10;99.90
59651;DHT22;45954;49.768;8.636;2022-12-29T03:20:46;12.00;99.90
59651;DHT22;45954;49.768;8.636;2022-12-29T03:23:24;12.00;99.90
59651;DHT22;45954;49.768;8.636;2022-12-29T03:25:56;12.10;99.90
59651;DHT22;45954;49.768;8.636;2022-12-29T03:28:33;12.00;99.90
59651;DHT22;45954;49.768;8.636;2022-12-29T03:31:21;12.10;99.90
59651;DHT22;45954;49.768;8.636;2022-12-29T03:33:51;12.00;99.90
59651;DHT22;45954;49.768;8.636;2022-12-29T03:36:30;12.10;99.90
59651;DHT22;45954;49.768;8.636;2022-12-29T03:39:07;12.10;99.90
59651;DHT22;45954;49.768;8.636;2022-12-29T03:41:41;12.10;99.90
59651;DHT22;45954;49.768;8.636;2022-12-29T03:44:10;12.10;99.90
59651;DHT22;45954;49.768;8.636;2022-12-29T03:46:37;12.20;99.90
59651;DHT22;45954;49.768;8.636;2022-12-29T03:49:03;12.20;99.90
59651;DHT22;45954;49.768;8.636;2022-12-29T03:51:29;12.20;99.90
59651;DHT22;45954;49.768;8.636;2022-12-29T03:53:55;12.20;99.90
59651;DHT22;45954;49.768;8.636;2022-12-29T03:56:21;12.10;99.90
59651;DHT22;45954;49.768;8.636;2022-12-29T03:58:47;12.20;99.90
59651;DHT22;45954;49.768;8.636;2022-12-29T04:01:12;12.10;99.90
59651;DHT22;45954;49.768;8.636;2022-12-29T04:03:38;12.00;99.90
59651;DHT22;45954;49.768;8.636;2022-12-29T04:06:04;12.10;99.90
59651;DHT22;45954;49.768;8.636;2022-12-29T04:08:31;12.10;99.90
59651;DHT22;45954;49.768;8.636;2022-12-29T04:10:56;12.10;99.90
59651;DHT22;45954;49.768;8.636;2022-12-29T04:13:22;12.20;99.90
59651;DHT22;45954;49.768;8.636;2022-12-29T04:15:48;12.10;99.90
59651;DHT22;45954;49.768;8.636;2022-12-29T04:18:14;12.20;99.90
59651;DHT22;45954;49.768;8.636;2022-12-29T04:20:41;12.10;99.90
59651;DHT22;45954;49.768;8.636;2022-12-29T04:23:27;12.20;99.90
59651;DHT22;45954;49.768;8.636;2022-12-29T04:25:53;12.20;99.90
59651;DHT22;45954;49.768;8.636;2022-12-29T04:28:19;12.20;99.90
59651;DHT22;45954;49.768;8.636;2022-12-29T04:30:46;12.10;99.90
59651;DHT22;45954;49.768;8.636;2022-12-29T04:33:12;12.20;99.90
59651;DHT22;45954;49.768;8.636;2022-12-29T04:35:39;12.20;99.90
59651;DHT22;45954;49.768;8.636;2022-12-29T04:38:05;12.20;99.90
59651;DHT22;45954;49.768;8.636;2022-12-29T04:40:30;12.20;99.90
59651;DHT22;45954;49.768;8.636;2022-12-29T04:42:56;12.20;99.90
59651;DHT22;45954;49.768;8.636;2022-12-29T04:45:22;12.20;99.90
59651;DHT22;45954;49.768;8.636;2022-12-29T04:47:48;12.20;99.90
59651;DHT22;45954;49.768;8.636;2022-12-29T04:50:14;12.20;99.90
59651;DHT22;45954;49.768;8.636;2022-12-29T04:52:40;12.20;99.90
59651;DHT22;45954;49.768;8.636;2022-12-29T04:55:06;12.20;99.90
59651;DHT22;45954;49.768;8.636;2022-12-29T04:57:32;12.20;99.90
59651;DHT22;45954;49.768;8.636;2022-12-29T04:59:58;12.20;99.90
59651;DHT22;45954;49.768;8.636;2022-12-29T05:02:24;12.30;99.90
59651;DHT22;45954;49.768;8.636;2022-12-29T05:04:50;12.30;99.90
59651;DHT22;45954;49.768;8.636;2022-12-29T05:07:15;12.30;99.90
59651;DHT22;45954;49.768;8.636;2022-12-29T05:09:41;12.30;99.90
59651;DHT22;45954;49.768;8.636;2022-12-29T05:12:07;12.20;99.90
59651;DHT22;45954;49.768;8.636;2022-12-29T05:14:33;12.20;99.90
59651;DHT22;45954;49.768;8.636;2022-12-29T05:16:59;12.30;99.90
59651;DHT22;45954;49.768;8.636;2022-12-29T05:19:25;12.30;99.90
59651;DHT22;45954;49.768;8.636;2022-12-29T05:21:51;12.20;99.90
59651;DHT22;45954;49.768;8.636;2022-12-29T05:24:17;12.20;99.90
59651;DHT22;45954;49.768;8.636;2022-12-29T05:26:43;12.30;99.90
59651;DHT22;45954;49.768;8.636;2022-12-29T05:29:09;12.30;99.90
59651;DHT22;45954;49.768;8.636;2022-12-29T05:31:34;12.40;99.90
59651;DHT22;45954;49.768;8.636;2022-12-29T05:34:01;12.40;99.90
59651;DHT22;45954;49.768;8.636;2022-12-29T05:36:27;12.40;99.90
59651;DHT22;45954;49.768;8.636;2022-12-29T05:38:53;12.50;99.90
59651;DHT22;45954;49.768;8.636;2022-12-29T05:41:19;12.50;99.90
59651;DHT22;45954;49.768;8.636;2022-12-29T05:43:45;12.50;99.90
59651;DHT22;45954;49.768;8.636;2022-12-29T05:46:11;12.50;99.90
59651;DHT22;45954;49.768;8.636;2022-12-29T05:48:37;12.50;99.90
59651;DHT22;45954;49.768;8.636;2022-12-29T05:51:03;12.50;99.90
59651;DHT22;45954;49.768;8.636;2022-12-29T05:53:28;12.50;99.90
59651;DHT22;45954;49.768;8.636;2022-12-29T05:55:54;12.50;99.90
59651;DHT22;45954;49.768;8.636;2022-12-29T05:58:20;12.50;99.90
59651;DHT22;45954;49.768;8.636;2022-12-29T06:00:46;12.50;99.90
59651;DHT22;45954;49.768;8.636;2022-12-29T06:03:12;12.50;99.90
59651;DHT22;45954;49.768;8.636;2022-12-29T06:05:38;12.60;99.90
59651;DHT22;45954;49.768;8.636;2022-12-29T06:08:04;12.50;99.90
59651;DHT22;45954;49.768;8.636;2022-12-29T06:10:30;12.60;99.90
59651;DHT22;45954;49.768;8.636;2022-12-29T06:12:55;12.60;99.90
59651;DHT22;45954;49.768;8.636;2022-12-29T06:15:21;12.60;99.90
59651;DHT22;45954;49.768;8.636;2022-12-29T06:17:47;12.60;99.90
59651;DHT22;45954;49.768;8.636;2022-12-29T06:20:13;12.60;99.90
59651;DHT22;45954;49.768;8.636;2022-12-29T06:22:39;12.60;99.90
59651;DHT22;45954;49.768;8.636;2022-12-29T06:25:05;12.60;99.90
59651;DHT22;45954;49.768;8.636;2022-12-29T06:27:32;12.60;99.90
59651;DHT22;45954;49.768;8.636;2022-12-29T06:29:57;12.60;99.90
59651;DHT22;45954;49.768;8.636;2022-12-29T06:32:23;12.60;99.90
59651;DHT22;45954;49.768;8.636;2022-12-29T06:34:49;12.60;99.90
59651;DHT22;45954;49.768;8.636;2022-12-29T06:37:15;12.40;99.90
59651;DHT22;45954;49.768;8.636;2022-12-29T06:39:41;12.50;99.90
59651;DHT22;45954;49.768;8.636;2022-12-29T06:42:09;12.50;99.90
59651;DHT22;45954;49.768;8.636;2022-12-29T06:44:35;12.60;99.90
59651;DHT22;45954;49.768;8.636;2022-12-29T06:47:01;12.50;99.90
59651;DHT22;45954;49.768;8.636;2022-12-29T06:49:27;12.50;99.90
59651;DHT22;45954;49.768;8.636;2022-12-29T06:51:52;12.50;99.90
59651;DHT22;45954;49.768;8.636;2022-12-29T06:54:18;12.40;99.90
59651;DHT22;45954;49.768;8.636;2022-12-29T06:56:44;12.50;99.90
59651;DHT22;45954;49.768;8.636;2022-12-29T06:59:10;12.50;99.90
59651;DHT22;45954;49.768;8.636;2022-12-29T07:01:36;12.50;99.90
59651;DHT22;45954;49.768;8.636;2022-12-29T07:04:03;12.50;99.90
59651;DHT22;45954;49.768;8.636;2022-12-29T07:06:29;12.60;99.90
59651;DHT22;45954;49.768;8.636;2022-12-29T07:08:54;12.60;99.90
59651;DHT22;45954;49.768;8.636;2022-12-29T07:11:23;12.60;99.90
59651;DHT22;45954;49.768;8.636;2022-12-29T07:13:50;12.70;99.90
59651;DHT22;45954;49.768;8.636;2022-12-29T07:16:16;12.70;99.90
59651;DHT22;45954;49.768;8.636;2022-12-29T07:18:42;12.80;99.90
59651;DHT22;45954;49.768;8.636;2022-12-29T07:21:08;12.90;99.90
59651;DHT22;45954;49.768;8.636;2022-12-29T07:23:34;12.90;99.90
59651;DHT22;45954;49.768;8.636;2022-12-29T07:26:07;12.80;99.90
59651;DHT22;45954;49.768;8.636;2022-12-29T07:28:37;12.70;99.90
59651;DHT22;45954;49.768;8.636;2022-12-29T07:31:04;12.60;99.90
59651;DHT22;45954;49.768;8.636;2022-12-29T07:33:31;12.70;99.90
59651;DHT22;45954;49.768;8.636;2022-12-29T07:35:59;12.60;99.90
59651;DHT22;45954;49.768;8.636;2022-12-29T07:38:25;12.70;99.90
59651;DHT22;45954;49.768;8.636;2022-12-29T07:40:51;12.70;99.90
59651;DHT22;45954;49.768;8.636;2022-12-29T07:43:17;12.70;99.90
59651;DHT22;45954;49.768;8.636;2022-12-29T07:45:42;12.60;99.90
59651;DHT22;45954;49.768;8.636;2022-12-29T07:48:08;12.60;99.90
59651;DHT22;45954;49.768;8.636;2022-12-29T07:50:35;12.60;99.90
59651;DHT22;45954;49.768;8.636;2022-12-29T07:53:02;12.70;99.90
59651;DHT22;45954;49.768;8.636;2022-12-29T07:55:29;12.80;99.90
59651;DHT22;45954;49.768;8.636;2022-12-29T07:57:56;12.70;99.90
59651;DHT22;45954;49.768;8.636;2022-12-29T08:00:25;12.70;99.90
59651;DHT22;45954;49.768;8.636;2022-12-29T08:02:51;12.70;99.90
59651;DHT22;45954;49.768;8.636;2022-12-29T08:05:17;12.70;99.90
59651;DHT22;45954;49.768;8.636;2022-12-29T08:07:44;12.80;99.90
59651;DHT22;45954;49.768;8.636;2022-12-29T08:10:11;12.70;99.90
59651;DHT22;45954;49.768;8.636;2022-12-29T08:12:41;12.70;99.90
59651;DHT22;45954;49.768;8.636;2022-12-29T08:15:09;12.70;99.90
59651;DHT22;45954;49.768;8.636;2022-12-29T08:17:37;12.70;99.90
59651;DHT22;45954;49.768;8.636;2022-12-29T08:20:03;12.70;99.90
59651;DHT22;45954;49.768;8.636;2022-12-29T08:22:30;12.60;99.90
59651;DHT22;45954;49.768;8.636;2022-12-29T08:24:56;12.60;99.90
59651;DHT22;45954;49.768;8.636;2022-12-29T08:27:22;12.60;99.90
59651;DHT22;45954;49.768;8.636;2022-12-29T08:29:48;12.60;99.90
59651;DHT22;45954;49.768;8.636;2022-12-29T08:32:14;12.60;99.90
59651;DHT22;45954;49.768;8.636;2022-12-29T08:34:40;12.80;99.90
59651;DHT22;45954;49.768;8.636;2022-12-29T08:37:06;12.80;99.90
59651;DHT22;45954;49.768;8.636;2022-12-29T08:39:31;13.00;99.90
59651;DHT22;45954;49.768;8.636;2022-12-29T08:41:57;12.90;99.90
59651;DHT22;45954;49.768;8.636;2022-12-29T08:44:23;12.80;99.90
59651;DHT22;45954;49.768;8.636;2022-12-29T08:46:49;12.80;99.90
59651;DHT22;45954;49.768;8.636;2022-12-29T08:49:15;12.90;99.90
59651;DHT22;45954;49.768;8.636;2022-12-29T08:51:41;13.00;99.90
59651;DHT22;45954;49.768;8.636;2022-12-29T08:54:06;13.00;99.90
59651;DHT22;45954;49.768;8.636;2022-12-29T08:56:32;13.00;99.90
59651;DHT22;45954;49.768;8.636;2022-12-29T08:58:58;13.00;99.90
59651;DHT22;45954;49.768;8.636;2022-12-29T09:01:24;13.00;99.90
59651;DHT22;45954;49.768;8.636;2022-12-29T09:03:50;12.90;99.90
59651;DHT22;45954;49.768;8.636;2022-12-29T09:06:17;13.00;99.90
59651;DHT22;45954;49.768;8.636;2022-12-29T09:08:44;13.00;99.90
59651;DHT22;45954;49.768;8.636;2022-12-29T09:11:14;13.10;99.90
59651;DHT22;45954;49.768;8.636;2022-12-29T09:13:47;13.00;99.90
59651;DHT22;45954;49.768;8.636;2022-12-29T09:16:13;13.10;99.90
59651;DHT22;45954;49.768;8.636;2022-12-29T09:18:40;13.10;99.90
59651;DHT22;45954;49.768;8.636;2022-12-29T09:21:06;13.10;99.90
59651;DHT22;45954;49.768;8.636;2022-12-29T09:23:34;13.10;99.90
59651;DHT22;45954;49.768;8.636;2022-12-29T09:26:01;13.10;99.90
59651;DHT22;45954;49.768;8.636;2022-12-29T09:28:27;13.10;99.90
59651;DHT22;45954;49.768;8.636;2022-12-29T09:30:55;13.10;99.90
59651;DHT22;45954;49.768;8.636;2022-12-29T09:33:23;13.00;99.90
59651;DHT22;45954;49.768;8.636;2022-12-29T09:35:57;13.00;99.90
59651;DHT22;45954;49.768;8.636;2022-12-29T09:38:25;13.00;99.90
59651;DHT22;45954;49.768;8.636;2022-12-29T09:40:59;13.00;99.90
59651;DHT22;45954;49.768;8.636;2022-12-29T09:44:07;13.00;99.90
59651;DHT22;45954;49.768;8.636;2022-12-29T09:46:52;13.10;99.90
59651;DHT22;45954;49.768;8.636;2022-12-29T09:49:53;13.00;99.90
59651;DHT22;45954;49.768;8.636;2022-12-29T09:52:22;13.20;99.90
59651;DHT22;45954;49.768;8.636;2022-12-29T09:54:58;13.20;99.90
59651;DHT22;45954;49.768;8.636;2022-12-29T10:00:22;13.20;99.90
59651;DHT22;45954;49.768;8.636;2022-12-29T10:03:22;13.30;99.90
59651;DHT22;45954;49.768;8.636;2022-12-29T10:05:50;13.30;99.90
59651;DHT22;45954;49.768;8.636;2022-12-29T10:09:00;13.40;99.90
59651;DHT22;45954;49.768;8.636;2022-12-29T10:14:30;13.40;99.90
59651;DHT22;45954;49.768;8.636;2022-12-29T10:20:54;13.40;99.90
59651;DHT22;45954;49.768;8.636;2022-12-29T10:25:57;13.50;99.90
59651;DHT22;45954;49.768;8.636;2022-12-29T10:28:34;13.50;99.90
59651;DHT22;45954;49.768;8.636;2022-12-29T10:31:08;13.40;99.90
59651;DHT22;45954;49.768;8.636;2022-12-29T10:33:40;13.40;99.90
59651;DHT22;45954;49.768;8.636;2022-12-29T10:36:17;13.30;99.90
59651;DHT22;45954;49.768;8.636;2022-12-29T10:38:48;13.40;99.90
59651;DHT22;45954;49.768;8.636;2022-12-29T10:41:38;13.20;99.90
59651;DHT22;45954;49.768;8.636;2022-12-29T10:44:14;13.00;99.90
59651;DHT22;45954;49.768;8.636;2022-12-29T10:46:44;12.50;99.90
59651;DHT22;45954;49.768;8.636;2022-12-29T10:49:28;12.00;99.90
59651;DHT22;45954;49.768;8.636;2022-12-29T10:51:59;11.80;99.90
59651;DHT22;45954;49.768;8.636;2022-12-29T10:54:38;11.60;99.90
59651;DHT22;45954;49.768;8.636;2022-12-29T10:57:18;11.50;99.90
59651;DHT22;45954;49.768;8.636;2022-12-29T10:59:50;11.10;99.90
59651;DHT22;45954;49.768;8.636;2022-12-29T11:05:52;10.80;99.90
59651;DHT22;45954;49.768;8.636;2022-12-29T11:08:35;10.90;99.90
59651;DHT22;45954;49.768;8.636;2022-12-29T11:11:05;10.80;99.90
59651;DHT22;45954;49.768;8.636;2022-12-29T11:13:38;10.80;99.90
59651;DHT22;45954;49.768;8.636;2022-12-29T11:16:13;10.80;99.90
59651;DHT22;45954;49.768;8.636;2022-12-29T11:18:40;10.70;99.90
59651;DHT22;45954;49.768;8.636;2022-12-29T11:24:20;10.60;99.90
59651;DHT22;45954;49.768;8.636;2022-12-29T11:26:49;10.70;99.90
59651;DHT22;45954;49.768;8.636;2022-12-29T11:29:25;10.90;99.90
59651;DHT22;45954;49.768;8.636;2022-12-29T11:31:58;10.90;99.90
59651;DHT22;45954;49.768;8.636;2022-12-29T11:34:35;11.00;99.90
59651;DHT22;45954;49.768;8.636;2022-12-29T11:37:10;11.30;99.90
59651;DHT22;45954;49.768;8.636;2022-12-29T11:42:28;11.40;99.90
59651;DHT22;45954;49.768;8.636;2022-12-29T11:45:20;11.30;99.90
59651;DHT22;45954;49.768;8.636;2022-12-29T11:47:58;11.50;99.90
59651;DHT22;45954;49.768;8.636;2022-12-29T11:50:32;11.60;99.90
59651;DHT22;45954;49.768;8.636;2022-12-29T11:53:07;11.60;99.90
59651;DHT22;45954;49.768;8.636;2022-12-29T11:56:02;11.60;99.90
59651;DHT22;45954;49.768;8.636;2022-12-29T11:58:33;11.70;99.90
59651;DHT22;45954;49.768;8.636;2022-12-29T12:01:28;11.70;99.90
59651;DHT22;45954;49.768;8.636;2022-12-29T12:04:12;11.70;99.90
59651;DHT22;45954;49.768;8.636;2022-12-29T12:07:08;11.70;99.90
59651;DHT22;45954;49.768;8.636;2022-12-29T12:09:54;11.60;99.90
59651;DHT22;45954;49.768;8.636;2022-12-29T12:15:02;11.50;99.90
59651;DHT22;45954;49.768;8.636;2022-12-29T12:17:49;11.50;99.90
59651;DHT22;45954;49.768;8.636;2022-12-29T12:26:32;11.80;99.90
59651;DHT22;45954;49.768;8.636;2022-12-29T12:29:14;12.00;99.90
59651;DHT22;45954;49.768;8.636;2022-12-29T12:31:59;12.00;99.90
59651;DHT22;45954;49.768;8.636;2022-12-29T12:34:40;12.00;99.90
59651;DHT22;45954;49.768;8.636;2022-12-29T12:49:37;11.80;99.90
59651;DHT22;45954;49.768;8.636;2022-12-29T12:55:34;12.00;99.90
59651;DHT22;45954;49.768;8.636;2022-12-29T13:01:10;12.10;99.90
59651;DHT22;45954;49.768;8.636;2022-12-29T13:04:03;12.10;99.90
59651;DHT22;45954;49.768;8.636;2022-12-29T13:06:51;12.10;99.90
59651;DHT22;45954;49.768;8.636;2022-12-29T13:10:17;12.00;99.90
59651;DHT22;45954;49.768;8.636;2022-12-29T13:30:50;12.20;99.90
59651;DHT22;45954;49.768;8.636;2022-12-29T13:33:52;12.30;99.90
59651;DHT22;45954;49.768;8.636;2022-12-29T13:36:46;12.20;99.90
59651;DHT22;45954;49.768;8.636;2022-12-29T13:39:33;12.30;99.90
59651;DHT22;45954;49.768;8.636;2022-12-29T13:42:03;12.40;99.90
59651;DHT22;45954;49.768;8.636;2022-12-29T13:44:35;12.30;99.90
59651;DHT22;45954;49.768;8.636;2022-12-29T13:47:20;12.40;99.90
59651;DHT22;45954;49.768;8.636;2022-12-29T13:49:52;12.40;99.90
59651;DHT22;45954;49.768;8.636;2022-12-29T13:55:58;12.30;99.90
59651;DHT22;45954;49.768;8.636;2022-12-29T13:58:43;12.30;99.90
59651;DHT22;45954;49.768;8.636;2022-12-29T14:04:12;12.30;99.90
59651;DHT22;45954;49.768;8.636;2022-12-29T14:06:40;12.20;99.90
59651;DHT22;45954;49.768;8.636;2022-12-29T14:09:50;12.20;99.90
59651;DHT22;45954;49.768;8.636;2022-12-29T14:12:31;12.30;99.90
59651;DHT22;45954;49.768;8.636;2022-12-29T14:17:40;12.30;99.90
59651;DHT22;45954;49.768;8.636;2022-12-29T14:20:20;12.10;99.90
59651;DHT22;45954;49.768;8.636;2022-12-29T14:22:58;12.20;99.90
59651;DHT22;45954;49.768;8.636;2022-12-29T14:25:55;12.10;99.90
59651;DHT22;45954;49.768;8.636;2022-12-29T14:28:47;12.20;99.90
59651;DHT22;45954;49.768;8.636;2022-12-29T14:33:39;12.20;99.90
59651;DHT22;45954;49.768;8.636;2022-12-29T14:42:05;12.10;99.90
59651;DHT22;45954;49.768;8.636;2022-12-29T14:44:52;12.00;99.90
59651;DHT22;45954;49.768;8.636;2022-12-29T14:50:06;12.10;99.90
59651;DHT22;45954;49.768;8.636;2022-12-29T14:58:20;11.90;99.90
59651;DHT22;45954;49.768;8.636;2022-12-29T15:00:56;12.00;99.90
59651;DHT22;45954;49.768;8.636;2022-12-29T15:03:29;12.00;99.90
59651;DHT22;45954;49.768;8.636;2022-12-29T15:06:08;11.90;99.90
59651;DHT22;45954;49.768;8.636;2022-12-29T15:08:42;11.80;99.90
59651;DHT22;45954;49.768;8.636;2022-12-29T15:11:21;11.80;99.90
59651;DHT22;45954;49.768;8.636;2022-12-29T15:13:50;11.80;99.90
59651;DHT22;45954;49.768;8.636;2022-12-29T15:16:25;11.80;99.90
59651;DHT22;45954;49.768;8.636;2022-12-29T15:18:59;11.70;99.90
59651;DHT22;45954;49.768;8.636;2022-12-29T15:21:31;11.70;99.90
59651;DHT22;45954;49.768;8.636;2022-12-29T15:23:59;11.60;99.90
59651;DHT22;45954;49.768;8.636;2022-12-29T15:26:39;11.40;99.90
59651;DHT22;45954;49.768;8.636;2022-12-29T15:29:36;11.40;99.90
59651;DHT22;45954;49.768;8.636;2022-12-29T15:34:44;11.40;99.90
59651;DHT22;45954;49.768;8.636;2022-12-29T15:37:19;11.30;99.90
59651;DHT22;45954;49.768;8.636;2022-12-29T15:39:46;11.30;99.90
59651;DHT22;45954;49.768;8.636;2022-12-29T15:45:13;11.30;99.90
59651;DHT22;45954;49.768;8.636;2022-12-29T15:47:43;11.20;99.90
59651;DHT22;45954;49.768;8.636;2022-12-29T15:50:24;11.20;99.90
59651;DHT22;45954;49.768;8.636;2022-12-29T15:52:54;11.10;99.90
59651;DHT22;45954;49.768;8.636;2022-12-29T15:55:28;11.00;99.90
59651;DHT22;45954;49.768;8.636;2022-12-29T15:58:00;11.10;99.90
59651;DHT22;45954;49.768;8.636;2022-12-29T16:00:34;11.10;99.90
59651;DHT22;45954;49.768;8.636;2022-12-29T16:03:05;11.10;99.90
59651;DHT22;45954;49.768;8.636;2022-12-29T16:05:39;11.00;99.90
59651;DHT22;45954;49.768;8.636;2022-12-29T16:08:34;11.10;99.90
59651;DHT22;45954;49.768;8.636;2022-12-29T16:14:12;11.10;99.90
59651;DHT22;45954;49.768;8.636;2022-12-29T16:16:43;11.10;99.90
59651;DHT22;45954;49.768;8.636;2022-12-29T16:19:27;11.10;99.90
59651;DHT22;45954;49.768;8.636;2022-12-29T16:21:56;11.00;99.90
59651;DHT22;45954;49.768;8.636;2022-12-29T16:24:27;10.90;99.90
59651;DHT22;45954;49.768;8.636;2022-12-29T16:27:02;10.90;99.90
59651;DHT22;45954;49.768;8.636;2022-12-29T16:29:36;10.90;99.90
59651;DHT22;45954;49.768;8.636;2022-12-29T16:38:11;11.00;99.90
59651;DHT22;45954;49.768;8.636;2022-12-29T16:40:52;11.10;99.90
59651;DHT22;45954;49.768;8.636;2022-12-29T16:48:21;11.00;99.90
59651;DHT22;45954;49.768;8.636;2022-12-29T16:51:03;11.00;99.90
59651;DHT22;45954;49.768;8.636;2022-12-29T16:53:37;11.00;99.90
59651;DHT22;45954;49.768;8.636;2022-12-29T16:56:13;11.00;99.90
59651;DHT22;45954;49.768;8.636;2022-12-29T16:58:50;11.10;99.90
59651;DHT22;45954;49.768;8.636;2022-12-29T17:01:20;11.00;99.90
59651;DHT22;45954;49.768;8.636;2022-12-29T17:03:53;10.90;99.90
59651;DHT22;45954;49.768;8.636;2022-12-29T17:06:23;11.00;99.90
59651;DHT22;45954;49.768;8.636;2022-12-29T17:08:50;11.00;99.90
59651;DHT22;45954;49.768;8.636;2022-12-29T17:20:17;11.00;99.90
59651;DHT22;45954;49.768;8.636;2022-12-29T17:22:46;10.90;99.90
59651;DHT22;45954;49.768;8.636;2022-12-29T17:25:15;10.90;99.90
59651;DHT22;45954;49.768;8.636;2022-12-29T17:27:53;10.90;99.90
59651;DHT22;45954;49.768;8.636;2022-12-29T17:30:25;10.90;99.90
59651;DHT22;45954;49.768;8.636;2022-12-29T17:32:56;10.90;99.90
59651;DHT22;45954;49.768;8.636;2022-12-29T17:35:23;11.00;99.90
59651;DHT22;45954;49.768;8.636;2022-12-29T17:37:49;10.90;99.90
59651;DHT22;45954;49.768;8.636;2022-12-29T17:40:21;10.90;99.90
59651;DHT22;45954;49.768;8.636;2022-12-29T17:42:54;10.90;99.90
59651;DHT22;45954;49.768;8.636;2022-12-29T17:45:27;10.90;99.90
59651;DHT22;45954;49.768;8.636;2022-12-29T17:47:55;11.00;99.90
59651;DHT22;45954;49.768;8.636;2022-12-29T17:50:24;11.00;99.90
59651;DHT22;45954;49.768;8.636;2022-12-29T17:53:15;11.00;99.90
59651;DHT22;45954;49.768;8.636;2022-12-29T17:55:44;10.70;99.90
59651;DHT22;45954;49.768;8.636;2022-12-29T18:00:51;10.80;99.90
59651;DHT22;45954;49.768;8.636;2022-12-29T18:03:27;10.80;99.90
59651;DHT22;45954;49.768;8.636;2022-12-29T18:05:54;10.80;99.90
59651;DHT22;45954;49.768;8.636;2022-12-29T18:08:21;10.80;99.90
59651;DHT22;45954;49.768;8.636;2022-12-29T18:10:47;10.80;99.90
59651;DHT22;45954;49.768;8.636;2022-12-29T18:13:22;10.80;99.90
59651;DHT22;45954;49.768;8.636;2022-12-29T18:15:51;10.90;99.90
59651;DHT22;45954;49.768;8.636;2022-12-29T18:18:20;10.80;99.90
59651;DHT22;45954;49.768;8.636;2022-12-29T18:20:50;10.90;99.90
59651;DHT22;45954;49.768;8.636;2022-12-29T18:23:21;10.80;99.90
59651;DHT22;45954;49.768;8.636;2022-12-29T18:26:02;10.80;99.90
59651;DHT22;45954;49.768;8.636;2022-12-29T18:28:29;10.80;99.90
59651;DHT22;45954;49.768;8.636;2022-12-29T18:30:57;10.80;99.90
59651;DHT22;45954;49.768;8.636;2022-12-29T18:33:25;10.90;99.90
59651;DHT22;45954;49.768;8.636;2022-12-29T18:36:01;10.80;99.90
59651;DHT22;45954;49.768;8.636;2022-12-29T18:38:30;10.70;99.90
59651;DHT22;45954;49.768;8.636;2022-12-29T18:40:57;10.70;99.90